createdAt,value
2023-01-05T00:00:28.171Z,100305.63
2023-01-05T00:03:31.126Z,100318.63
2023-01-05T00:06:33.483Z,100300.38
2023-01-05T00:09:34.782Z,100304.53
2023-01-05T00:12:54.226Z,100306.28
2023-01-05T00:16:17.212Z,100301.66
2023-01-05T00:19:38.320Z,100305.31
2023-01-05T00:22:48.537Z,100309.91
2023-01-05T00:25:49.805Z,100316.44
2023-01-05T00:32:10.786Z,100319.53
2023-01-05T00:35:16.439Z,100320.63
2023-01-05T00:41:39.931Z,100314.59
2023-01-05T00:48:04.268Z,100303.94
2023-01-05T00:51:05.725Z,100304.50
2023-01-05T00:54:08.714Z,100311.56
2023-01-05T00:57:10.693Z,100312.84
2023-01-05T01:00:15.482Z,100305.88
2023-01-05T01:03:17.413Z,100303.69
2023-01-05T01:06:19.710Z,100307.72
2023-01-05T01:09:23.329Z,100308.91
2023-01-05T01:12:24.877Z,100308.34
2023-01-05T01:15:29.390Z,100313.47
2023-01-05T01:18:31.975Z,100313.94
2023-01-05T01:21:36.699Z,100310.94
2023-01-05T01:24:38.979Z,100318.97
2023-01-05T01:27:42.259Z,100327.38
2023-01-05T01:30:44.901Z,100322.53
2023-01-05T01:33:46.860Z,100320.84
2023-01-05T01:36:49.349Z,100321.72
2023-01-05T01:39:51.681Z,100316.72
2023-01-05T01:42:53.402Z,100316.56
2023-01-05T01:45:55.324Z,100317.91
2023-01-05T01:49:01.306Z,100319.16
2023-01-05T01:52:02.795Z,100330.50
2023-01-05T01:58:33.288Z,100323.13
2023-01-05T02:01:35.209Z,100318.44
2023-01-05T02:04:39.211Z,100302.78
2023-01-05T02:07:44.415Z,100297.03
2023-01-05T02:11:03.972Z,100313.78
2023-01-05T02:14:22.620Z,100316.50
2023-01-05T02:17:34.436Z,100297.06
2023-01-05T02:24:56.264Z,100287.56
2023-01-05T02:35:13.405Z,100303.97
2023-01-05T02:38:23.603Z,100297.59
2023-01-05T02:41:32.967Z,100289.38
2023-01-05T02:44:34.602Z,100294.56
2023-01-05T02:47:38.872Z,100295.75
2023-01-05T02:50:46.691Z,100294.91
2023-01-05T02:57:43.059Z,100289.69
2023-01-05T03:00:51.174Z,100287.19
2023-01-05T03:03:59.475Z,100292.16
2023-01-05T03:07:04.376Z,100291.22
2023-01-05T03:10:23.471Z,100297.69
2023-01-05T03:13:41.041Z,100298.59
2023-01-05T03:16:47.310Z,100302.53
2023-01-05T03:19:50.488Z,100304.63
2023-01-05T03:23:11.645Z,100290.25
2023-01-05T03:26:33.112Z,100291.91
2023-01-05T03:29:52.583Z,100298.81
2023-01-05T03:36:51.318Z,100309.59
2023-01-05T03:39:53.001Z,100312.41
2023-01-05T03:42:56.431Z,100321.72
2023-01-05T03:46:00.702Z,100317.81
2023-01-05T03:49:03.473Z,100319.66
2023-01-05T03:52:06.009Z,100326.41
2023-01-05T03:55:08.705Z,100326.09
2023-01-05T03:58:11.692Z,100326.09
2023-01-05T04:01:13.042Z,100334.63
2023-01-05T04:04:14.448Z,100345.00
2023-01-05T04:07:16.710Z,100350.22
2023-01-05T04:10:17.970Z,100346.09
2023-01-05T04:13:19.568Z,100340.34
2023-01-05T04:16:20.963Z,100351.47
2023-01-05T04:19:22.779Z,100358.44
2023-01-05T04:22:27.334Z,100359.56
2023-01-05T04:25:30.688Z,100358.47
2023-01-05T04:28:33.630Z,100374.50
2023-01-05T04:31:34.949Z,100373.44
2023-01-05T04:34:36.603Z,100376.34
2023-01-05T04:37:38.615Z,100361.22
2023-01-05T04:40:40.239Z,100358.97
2023-01-05T04:43:41.940Z,100369.16
2023-01-05T04:46:45.570Z,100367.25
2023-01-05T04:49:47.330Z,100370.69
2023-01-05T04:52:50.793Z,100370.91
2023-01-05T04:55:52.141Z,100371.00
2023-01-05T04:58:54.012Z,100370.84
2023-01-05T05:01:55.292Z,100378.81
2023-01-05T05:04:57.158Z,100391.50
2023-01-05T05:07:59.483Z,100395.94
2023-01-05T05:11:02.291Z,100386.88
2023-01-05T05:14:03.500Z,100373.88
2023-01-05T05:17:05.724Z,100386.75
2023-01-05T05:20:09.617Z,100385.31
2023-01-05T05:23:11.550Z,100386.22
2023-01-05T05:26:14.224Z,100377.81
2023-01-05T05:29:17.220Z,100391.34
2023-01-05T05:32:18.855Z,100386.19
2023-01-05T05:35:20.132Z,100391.69
2023-01-05T05:38:22.088Z,100389.69
2023-01-05T05:41:24.086Z,100381.97
2023-01-05T05:44:25.362Z,100373.31
2023-01-05T05:47:26.750Z,100372.25
2023-01-05T05:50:29.490Z,100411.03
2023-01-05T05:53:31.479Z,100439.81
2023-01-05T05:56:34.064Z,100427.50
2023-01-05T05:59:35.401Z,100425.16
2023-01-05T06:02:39.149Z,100429.41
2023-01-05T06:05:41.822Z,100406.38
2023-01-05T06:08:44.084Z,100421.06
2023-01-05T06:11:46.740Z,100435.63
2023-01-05T06:14:48.069Z,100432.19
2023-01-05T06:17:50.963Z,100454.66
2023-01-05T06:20:59.425Z,100461.56
2023-01-05T06:24:04.185Z,100458.09
2023-01-05T06:27:06.750Z,100449.00
2023-01-05T06:30:09.126Z,100456.13
2023-01-05T06:33:11.841Z,100453.50
2023-01-05T06:36:14.510Z,100461.38
2023-01-05T06:39:16.944Z,100454.06
2023-01-05T06:42:23.404Z,100471.97
2023-01-05T06:45:25.734Z,100473.41
2023-01-05T06:48:28.337Z,100468.91
2023-01-05T06:51:29.628Z,100476.03
2023-01-05T06:54:32.860Z,100484.75
2023-01-05T06:57:37.080Z,100489.53
2023-01-05T07:00:38.632Z,100483.34
2023-01-05T07:03:40.306Z,100498.81
2023-01-05T07:06:43.226Z,100488.28
2023-01-05T07:09:48.460Z,100487.66
2023-01-05T07:12:49.796Z,100491.69
2023-01-05T07:15:51.066Z,100505.75
2023-01-05T07:18:53.737Z,100511.53
2023-01-05T07:21:57.128Z,100510.50
2023-01-05T07:24:59.359Z,100515.69
2023-01-05T07:28:01.931Z,100510.63
2023-01-05T07:31:03.605Z,100510.44
2023-01-05T07:34:06.258Z,100515.69
2023-01-05T07:37:07.833Z,100533.50
2023-01-05T07:40:11.118Z,100530.25
2023-01-05T07:43:12.500Z,100537.28
2023-01-05T07:46:15.035Z,100546.31
2023-01-05T07:49:16.673Z,100547.84
2023-01-05T07:52:17.991Z,100557.88
2023-01-05T07:55:20.499Z,100559.38
2023-01-05T07:58:21.798Z,100570.47
2023-01-05T08:01:23.227Z,100582.75
2023-01-05T08:04:24.935Z,100582.34
2023-01-05T08:07:26.295Z,100593.28
2023-01-05T08:10:29.514Z,100605.63
2023-01-05T08:13:50.550Z,100598.25
2023-01-05T08:16:52.015Z,100607.94
2023-01-05T08:19:53.655Z,100612.09
2023-01-05T08:22:54.968Z,100619.78
2023-01-05T08:25:58.223Z,100620.78
2023-01-05T08:29:00.585Z,100632.38
2023-01-05T08:32:03.213Z,100633.81
2023-01-05T08:35:05.474Z,100626.38
2023-01-05T08:38:06.961Z,100639.78
2023-01-05T08:41:09.133Z,100623.78
2023-01-05T08:44:13.193Z,100629.25
2023-01-05T08:47:14.496Z,100633.00
2023-01-05T08:50:17.231Z,100635.22
2023-01-05T08:53:18.531Z,100648.25
2023-01-05T08:56:22.652Z,100653.88
2023-01-05T08:59:23.937Z,100641.94
2023-01-05T09:02:26.016Z,100648.31
2023-01-05T09:05:29.198Z,100653.09
2023-01-05T09:08:31.055Z,100660.50
2023-01-05T09:11:35.236Z,100666.59
2023-01-05T09:14:36.624Z,100662.06
2023-01-05T09:17:38.814Z,100682.94
2023-01-05T09:20:40.374Z,100678.88
2023-01-05T09:23:41.914Z,100672.22
2023-01-05T09:26:44.696Z,100678.31
2023-01-05T09:29:46.025Z,100689.31
2023-01-05T09:32:48.555Z,100688.00
2023-01-05T09:35:54.319Z,100700.06
2023-01-05T09:38:56.381Z,100698.88
2023-01-05T09:42:02.525Z,100710.25
2023-01-05T09:45:06.752Z,100726.44
2023-01-05T09:48:13.618Z,100739.44
2023-01-05T09:51:15.279Z,100715.00
2023-01-05T09:54:19.387Z,100732.25
2023-01-05T09:57:26.408Z,100734.16
2023-01-05T10:00:29.332Z,100728.63
2023-01-05T10:07:03.765Z,100740.72
2023-01-05T10:10:14.859Z,100741.97
2023-01-05T10:13:24.702Z,100739.41
2023-01-05T10:16:29.646Z,100729.75
2023-01-05T10:19:31.830Z,100740.13
2023-01-05T10:22:44.341Z,100744.47
2023-01-05T10:25:51.373Z,100742.63
2023-01-05T10:29:01.184Z,100738.81
2023-01-05T10:32:16.276Z,100749.09
2023-01-05T10:36:03.440Z,100750.50
2023-01-05T10:39:21.595Z,100753.94
2023-01-05T10:42:34.711Z,100766.53
2023-01-05T10:45:57.184Z,100771.19
2023-01-05T10:49:01.228Z,100771.69
2023-01-05T10:52:03.253Z,100778.81
2023-01-05T10:55:15.083Z,100793.09
2023-01-05T10:58:25.409Z,100787.88
2023-01-05T11:01:31.793Z,100789.19
2023-01-05T11:04:35.982Z,100788.34
2023-01-05T11:07:49.914Z,100804.38
2023-01-05T11:10:55.821Z,100805.31
2023-01-05T11:13:58.479Z,100809.84
2023-01-05T11:17:06.536Z,100802.97
2023-01-05T11:20:17.765Z,100817.63
2023-01-05T11:23:35.101Z,100811.63
2023-01-05T11:26:46.333Z,100834.63
2023-01-05T11:33:39.680Z,100837.28
2023-01-05T11:36:42.358Z,100845.28
2023-01-05T11:39:49.680Z,100842.00
2023-01-05T11:42:50.973Z,100864.09
2023-01-05T11:45:54.760Z,100858.03
2023-01-05T11:48:57.102Z,100860.63
2023-01-05T11:51:59.643Z,100875.31
2023-01-05T11:55:22.333Z,100864.19
2023-01-05T11:58:25.714Z,100871.66
2023-01-05T12:02:04.644Z,100865.97
2023-01-05T12:05:25.750Z,100866.50
2023-01-05T12:08:31.325Z,100878.72
2023-01-05T12:11:43.629Z,100873.72
2023-01-05T12:15:04.953Z,100882.13
2023-01-05T12:18:20.323Z,100890.84
2023-01-05T12:21:24.295Z,100892.91
2023-01-05T12:24:40.887Z,100901.78
2023-01-05T12:28:05.805Z,100910.03
2023-01-05T12:35:08.702Z,100929.03
2023-01-05T12:38:22.600Z,100932.34
2023-01-05T12:41:37.889Z,100940.09
2023-01-05T12:44:50.908Z,100937.75
2023-01-05T12:47:58.082Z,100965.50
2023-01-05T12:51:08.718Z,100956.03
2023-01-05T12:54:23.989Z,100957.50
2023-01-05T12:57:32.860Z,100959.84
2023-01-05T13:00:41.637Z,100965.97
2023-01-05T13:03:49.850Z,100966.50
2023-01-05T13:06:57.115Z,100975.22
2023-01-05T13:10:03.795Z,100976.69
2023-01-05T13:13:12.444Z,100972.16
2023-01-05T13:16:19.843Z,100980.50
2023-01-05T13:19:26.184Z,100997.06
2023-01-05T13:22:32.932Z,100991.78
2023-01-05T13:25:45.699Z,101003.06
2023-01-05T13:28:49.419Z,101009.72
2023-01-05T13:32:32.212Z,101015.53
2023-01-05T13:35:48.191Z,101045.59
2023-01-05T13:39:19.601Z,101030.94
2023-01-05T13:42:58.301Z,101052.50
2023-01-05T13:46:27.325Z,101065.97
2023-01-05T13:49:53.701Z,101081.72
2023-01-05T13:53:04.460Z,101073.13
2023-01-05T13:56:15.320Z,101079.94
2023-01-05T13:59:35.072Z,101096.97
2023-01-05T14:02:41.256Z,101115.88
2023-01-05T14:05:50.353Z,101113.25
2023-01-05T14:08:59.008Z,101130.13
2023-01-05T14:12:41.365Z,101134.16
2023-01-05T14:15:43.815Z,101133.13
2023-01-05T14:18:52.606Z,101130.59
2023-01-05T14:22:21.785Z,101143.34
2023-01-05T14:25:50.071Z,101144.25
2023-01-05T14:28:52.932Z,101156.50
2023-01-05T14:31:56.363Z,101167.66
2023-01-05T14:35:05.240Z,101171.25
2023-01-05T14:38:17.808Z,101184.19
2023-01-05T14:41:26.712Z,101192.50
2023-01-05T14:44:34.250Z,101197.25
2023-01-05T14:47:40.982Z,101191.69
2023-01-05T14:50:42.937Z,101202.91
2023-01-05T14:53:46.962Z,101214.25
2023-01-05T14:57:21.626Z,101219.34
2023-01-05T15:04:07.848Z,101245.47
2023-01-05T15:07:26.265Z,101244.34
2023-01-05T15:10:44.998Z,101260.72
2023-01-05T15:14:35.377Z,101273.88
2023-01-05T15:17:53.097Z,101278.19
2023-01-05T15:21:22.044Z,101284.88
2023-01-05T15:25:11.060Z,101290.50
2023-01-05T15:28:33.313Z,101292.44
2023-01-05T15:31:41.804Z,101300.28
2023-01-05T15:34:47.887Z,101306.25
2023-01-05T15:37:51.547Z,101310.88
2023-01-05T15:41:00.544Z,101320.56
2023-01-05T15:44:02.526Z,101321.06
2023-01-05T15:47:04.499Z,101331.75
2023-01-05T15:50:17.408Z,101326.91
2023-01-05T15:53:29.814Z,101327.97
2023-01-05T15:56:33.566Z,101336.38
2023-01-05T15:59:40.974Z,101352.88
2023-01-05T16:02:42.311Z,101356.47
2023-01-05T16:05:46.227Z,101355.09
2023-01-05T16:08:52.079Z,101356.34
2023-01-05T16:11:59.445Z,101363.91
2023-01-05T16:15:04.305Z,101368.06
2023-01-05T16:18:08.927Z,101374.22
2023-01-05T16:21:15.894Z,101385.16
2023-01-05T16:24:26.267Z,101383.59
2023-01-05T16:27:29.881Z,101395.16
2023-01-05T16:30:34.597Z,101404.88
2023-01-05T16:33:38.988Z,101408.38
2023-01-05T16:36:40.600Z,101408.78
2023-01-05T16:39:44.968Z,101417.72
2023-01-05T16:42:49.675Z,101412.25
2023-01-05T16:45:58.631Z,101422.41
2023-01-05T16:49:04.979Z,101420.34
2023-01-05T16:52:08.775Z,101423.91
2023-01-05T16:55:27.602Z,101424.13
2023-01-05T16:58:37.541Z,101433.63
2023-01-05T17:01:43.074Z,101426.97
2023-01-05T17:04:47.325Z,101429.25
2023-01-05T17:07:53.042Z,101424.81
2023-01-05T17:10:56.278Z,101431.59
2023-01-05T17:13:57.877Z,101443.41
2023-01-05T17:16:59.435Z,101451.41
2023-01-05T17:20:02.001Z,101454.03
2023-01-05T17:23:04.435Z,101456.00
2023-01-05T17:26:10.237Z,101462.66
2023-01-05T17:32:40.851Z,101463.16
2023-01-05T17:35:42.693Z,101467.38
2023-01-05T17:38:46.589Z,101466.09
2023-01-05T17:41:49.695Z,101464.56
2023-01-05T17:44:51.831Z,101470.72
2023-01-05T17:47:54.297Z,101467.69
2023-01-05T17:50:56.882Z,101467.53
2023-01-05T17:54:00.160Z,101479.13
2023-01-05T18:00:38.942Z,101493.41
2023-01-05T18:03:41.635Z,101490.06
2023-01-05T18:06:43.197Z,101503.88
2023-01-05T18:09:46.092Z,101510.13
2023-01-05T18:12:48.672Z,101502.88
2023-01-05T18:15:53.554Z,101519.03
2023-01-05T18:18:55.227Z,101524.09
2023-01-05T18:21:56.943Z,101522.22
2023-01-05T18:24:59.105Z,101535.13
2023-01-05T18:28:02.254Z,101537.34
2023-01-05T18:31:09.992Z,101526.47
2023-01-05T18:34:11.645Z,101544.56
2023-01-05T18:37:21.405Z,101547.94
2023-01-05T18:40:23.442Z,101546.69
2023-01-05T18:43:25.795Z,101544.97
2023-01-05T18:46:29.332Z,101551.28
2023-01-05T18:49:32.320Z,101552.59
2023-01-05T18:52:38.336Z,101558.66
2023-01-05T18:55:42.615Z,101564.56
2023-01-05T18:58:45.119Z,101576.31
2023-01-05T19:01:48.129Z,101572.31
2023-01-05T19:08:13.113Z,101588.44
2023-01-05T19:11:17.088Z,101591.59
2023-01-05T19:14:21.013Z,101591.59
2023-01-05T19:17:22.323Z,101592.44
2023-01-05T19:20:23.698Z,101593.69
2023-01-05T19:23:25.712Z,101596.84
2023-01-05T19:26:32.164Z,101599.97
2023-01-05T19:29:35.849Z,101597.50
2023-01-05T19:32:38.569Z,101603.34
2023-01-05T19:35:39.974Z,101605.88
2023-01-05T19:38:43.348Z,101609.25
2023-01-05T19:41:47.396Z,101611.53
2023-01-05T19:44:49.652Z,101613.03
2023-01-05T19:47:52.259Z,101607.59
2023-01-05T19:50:58.145Z,101609.47
2023-01-05T19:54:02.497Z,101610.28
2023-01-05T19:57:05.256Z,101617.84
2023-01-05T20:00:09.119Z,101628.53
2023-01-05T20:03:11.741Z,101625.38
2023-01-05T20:06:14.947Z,101624.53
2023-01-05T20:09:19.718Z,101637.94
2023-01-05T20:12:21.275Z,101633.78
2023-01-05T20:15:24.639Z,101635.63
2023-01-05T20:18:26.095Z,101645.88
2023-01-05T20:21:27.834Z,101649.81
2023-01-05T20:24:32.250Z,101644.78
2023-01-05T20:27:34.019Z,101657.97
2023-01-05T20:30:37.352Z,101662.94
2023-01-05T20:33:38.798Z,101669.03
2023-01-05T20:40:03.774Z,101679.72
2023-01-05T20:43:06.376Z,101681.16
2023-01-05T20:46:08.381Z,101670.50
2023-01-05T20:49:10.033Z,101681.53
2023-01-05T20:52:13.529Z,101679.44
2023-01-05T20:55:18.773Z,101678.19
2023-01-05T20:58:21.722Z,101691.16
2023-01-05T21:01:23.790Z,101681.09
2023-01-05T21:04:27.734Z,101679.38
2023-01-05T21:07:29.013Z,101694.03
2023-01-05T21:10:31.621Z,101694.25
2023-01-05T21:13:33.302Z,101697.53
2023-01-05T21:16:42.018Z,101702.13
2023-01-05T21:19:44.897Z,101705.06
2023-01-05T21:22:46.511Z,101712.22
2023-01-05T21:29:13.776Z,101719.72
2023-01-05T21:32:17.024Z,101713.84
2023-01-05T21:35:20.020Z,101722.66
2023-01-05T21:38:24.633Z,101722.66
2023-01-05T21:41:46.131Z,101718.50
2023-01-05T21:44:49.248Z,101722.84
2023-01-05T21:47:52.806Z,101721.38
2023-01-05T21:51:16.053Z,101724.94
2023-01-05T21:54:36.051Z,101721.38
2023-01-05T22:01:03.969Z,101724.53
2023-01-05T22:04:06.182Z,101726.81
2023-01-05T22:07:09.248Z,101724.72
2023-01-05T22:10:11.276Z,101724.31
2023-01-05T22:13:14.071Z,101729.53
2023-01-05T22:16:15.811Z,101729.22
2023-01-05T22:19:18.100Z,101730.06
2023-01-05T22:22:21.264Z,101732.16
2023-01-05T22:25:22.723Z,101737.44
2023-01-05T22:28:25.535Z,101732.16
2023-01-05T22:31:29.631Z,101731.09
2023-01-05T22:34:32.655Z,101731.63
2023-01-05T22:37:35.581Z,101745.19
2023-01-05T22:40:37.117Z,101751.81
2023-01-05T22:43:41.898Z,101742.38
2023-01-05T22:46:43.421Z,101746.44
2023-01-05T22:49:47.374Z,101743.44
2023-01-05T22:52:49.266Z,101748.63
2023-01-05T22:55:52.285Z,101749.88
2023-01-05T22:58:56.320Z,101750.00
2023-01-05T23:01:57.933Z,101755.19
2023-01-05T23:05:03.135Z,101755.50
2023-01-05T23:08:05.838Z,101753.81
2023-01-05T23:11:10.517Z,101751.03
2023-01-05T23:14:14.143Z,101755.53
2023-01-05T23:17:15.742Z,101756.75
2023-01-05T23:20:22.364Z,101762.75
2023-01-05T23:23:24.522Z,101764.19
2023-01-05T23:26:28.804Z,101771.09
2023-01-05T23:29:31.721Z,101763.72
2023-01-05T23:35:57.010Z,101763.44
2023-01-05T23:38:58.921Z,101759.13
2023-01-05T23:42:01.754Z,101750.34
2023-01-05T23:45:04.982Z,101739.91
2023-01-05T23:48:06.713Z,101739.34
2023-01-05T23:51:14.250Z,101733.53
2023-01-05T23:54:15.910Z,101724.06
2023-01-05T23:57:18.864Z,101716.00
